sensor_id;sensor_type;location;lat;lon;timestamp;P1;durP1;ratioP1;P2;durP2;ratioP2
62106;SDS011;48087;32.600;-97.100;2022-07-22T00:06:32;8;;;7;;
62106;SDS011;48087;32.600;-97.100;2022-07-22T00:07:41;8;;;7;;
62106;SDS011;48087;32.600;-97.100;2022-07-22T00:30:13;10;;;9;;
62106;SDS011;48087;32.600;-97.100;2022-07-22T00:31:22;8;;;7;;
62106;SDS011;48087;32.600;-97.100;2022-07-22T00:53:53;10;;;9;;
62106;SDS011;48087;32.600;-97.100;2022-07-22T01:16:23;11;;;10;;
62106;SDS011;48087;32.600;-97.100;2022-07-22T01:38:53;10;;;9;;
62106;SDS011;48087;32.600;-97.100;2022-07-22T01:40:02;11;;;10;;
62106;SDS011;48087;32.600;-97.100;2022-07-22T02:02:32;11;;;10;;
62106;SDS011;48087;32.600;-97.100;2022-07-22T02:25:00;13;;;12;;
62106;SDS011;48087;32.600;-97.100;2022-07-22T02:26:09;11;;;10;;
62106;SDS011;48087;32.600;-97.100;2022-07-22T02:48:38;10;;;9;;
62106;SDS011;48087;32.600;-97.100;2022-07-22T03:11:06;11;;;10;;
62106;SDS011;48087;32.600;-97.100;2022-07-22T03:12:16;11;;;10;;
62106;SDS011;48087;32.600;-97.100;2022-07-22T03:34:43;10;;;9;;
62106;SDS011;48087;32.600;-97.100;2022-07-22T03:35:52;11;;;10;;
62106;SDS011;48087;32.600;-97.100;2022-07-22T03:58:21;11;;;10;;
62106;SDS011;48087;32.600;-97.100;2022-07-22T04:20:48;13;;;12;;
62106;SDS011;48087;32.600;-97.100;2022-07-22T04:43:15;13;;;12;;
62106;SDS011;48087;32.600;-97.100;2022-07-22T05:05:42;11;;;10;;
62106;SDS011;48087;32.600;-97.100;2022-07-22T05:06:51;15;;;14;;
62106;SDS011;48087;32.600;-97.100;2022-07-22T05:29:18;14;;;13;;
62106;SDS011;48087;32.600;-97.100;2022-07-22T05:51:45;15;;;14;;
62106;SDS011;48087;32.600;-97.100;2022-07-22T06:14:11;27;;;16;;
62106;SDS011;48087;32.600;-97.100;2022-07-22T06:36:37;27;;;16;;
62106;SDS011;48087;32.600;-97.100;2022-07-22T06:59:03;27;;;16;;
62106;SDS011;48087;32.600;-97.100;2022-07-22T07:21:29;26;;;16;;
62106;SDS011;48087;32.600;-97.100;2022-07-22T07:43:55;26;;;16;;
62106;SDS011;48087;32.600;-97.100;2022-07-22T08:06:20;26;;;16;;
62106;SDS011;48087;32.600;-97.100;2022-07-22T08:51:10;29;;;18;;
62106;SDS011;48087;32.600;-97.100;2022-07-22T08:52:19;26;;;16;;
62106;SDS011;48087;32.600;-97.100;2022-07-22T09:14:44;28;;;16;;
62106;SDS011;48087;32.600;-97.100;2022-07-22T09:37:09;28;;;16;;
62106;SDS011;48087;32.600;-97.100;2022-07-22T09:59:34;28;;;16;;
62106;SDS011;48087;32.600;-97.100;2022-07-22T10:21:58;29;;;16;;
62106;SDS011;48087;32.600;-97.100;2022-07-22T10:44:46;29;;;16;;
62106;SDS011;48087;32.600;-97.100;2022-07-22T11:06:48;32;;;17;;
62106;SDS011;48087;32.600;-97.100;2022-07-22T11:29:15;31;;;17;;
62106;SDS011;48087;32.600;-97.100;2022-07-22T11:30:21;29;;;16;;
62106;SDS011;48087;32.600;-97.100;2022-07-22T11:52:51;30;;;17;;
62106;SDS011;48087;32.600;-97.100;2022-07-22T11:53:56;29;;;16;;
62106;SDS011;48087;32.600;-97.100;2022-07-22T12:16:21;30;;;16;;
62106;SDS011;48087;32.600;-97.100;2022-07-22T12:38:45;32;;;17;;
62106;SDS011;48087;32.600;-97.100;2022-07-22T12:39:54;32;;;18;;
62106;SDS011;48087;32.600;-97.100;2022-07-22T13:02:19;33;;;18;;
62106;SDS011;48087;32.600;-97.100;2022-07-22T13:03:29;31;;;17;;
62106;SDS011;48087;32.600;-97.100;2022-07-22T13:25:54;32;;;16;;
62106;SDS011;48087;32.600;-97.100;2022-07-22T13:48:19;36;;;18;;
62106;SDS011;48087;32.600;-97.100;2022-07-22T14:10:46;33;;;17;;
62106;SDS011;48087;32.600;-97.100;2022-07-22T14:33:13;34;;;17;;
62106;SDS011;48087;32.600;-97.100;2022-07-22T14:55:46;35;;;17;;
62106;SDS011;48087;32.600;-97.100;2022-07-22T15:18:16;33;;;16;;
62106;SDS011;48087;32.600;-97.100;2022-07-22T15:40:48;32;;;15;;
62106;SDS011;48087;32.600;-97.100;2022-07-22T16:03:20;33;;;16;;
62106;SDS011;48087;32.600;-97.100;2022-07-22T16:25:53;32;;;15;;
62106;SDS011;48087;32.600;-97.100;2022-07-22T16:27:02;14;;;12;;
62106;SDS011;48087;32.600;-97.100;2022-07-22T16:49:37;14;;;12;;
62106;SDS011;48087;32.600;-97.100;2022-07-22T17:34:45;15;;;13;;
62106;SDS011;48087;32.600;-97.100;2022-07-22T17:57:19;15;;;13;;
62106;SDS011;48087;32.600;-97.100;2022-07-22T18:19:54;31;;;15;;
62106;SDS011;48087;32.600;-97.100;2022-07-22T18:42:27;30;;;15;;
62106;SDS011;48087;32.600;-97.100;2022-07-22T19:05:02;16;;;14;;
62106;SDS011;48087;32.600;-97.100;2022-07-22T19:27:36;31;;;15;;
62106;SDS011;48087;32.600;-97.100;2022-07-22T19:50:11;14;;;12;;
62106;SDS011;48087;32.600;-97.100;2022-07-22T20:12:45;15;;;13;;
62106;SDS011;48087;32.600;-97.100;2022-07-22T20:35:20;15;;;13;;
62106;SDS011;48087;32.600;-97.100;2022-07-22T20:57:54;29;;;15;;
62106;SDS011;48087;32.600;-97.100;2022-07-22T20:59:03;15;;;13;;
62106;SDS011;48087;32.600;-97.100;2022-07-22T21:21:36;29;;;15;;
62106;SDS011;48087;32.600;-97.100;2022-07-22T21:44:09;32;;;16;;
62106;SDS011;48087;32.600;-97.100;2022-07-22T22:06:42;32;;;16;;
62106;SDS011;48087;32.600;-97.100;2022-07-22T22:29:13;31;;;15;;
62106;SDS011;48087;32.600;-97.100;2022-07-22T22:51:45;15;;;13;;
62106;SDS011;48087;32.600;-97.100;2022-07-22T23:14:17;14;;;12;;
62106;SDS011;48087;32.600;-97.100;2022-07-22T23:36:49;15;;;13;;
62106;SDS011;48087;32.600;-97.100;2022-07-22T23:37:57;27;;;15;;
